sensor_id;sensor_type;location;lat;lon;timestamp;pressure;altitude;pressure_sealevel;temperature;humidity
76627;BME280;65519;53.230;10.390;2022-11-28T00:01:46;101260.19;;;5.29;81.37
76627;BME280;65519;53.230;10.390;2022-11-28T00:04:12;101278.66;;;5.32;80.48
76627;BME280;65519;53.230;10.390;2022-11-28T00:06:41;101276.22;;;5.24;81.13
76627;BME280;65519;53.230;10.390;2022-11-28T00:09:10;101245.13;;;5.14;81.44
76627;BME280;65519;53.230;10.390;2022-11-28T00:11:38;101261.97;;;5.10;81.10
76627;BME280;65519;53.230;10.390;2022-11-28T00:14:03;101256.78;;;5.08;81.45
76627;BME280;65519;53.230;10.390;2022-11-28T00:16:28;101246.16;;;5.13;81.11
76627;BME280;65519;53.230;10.390;2022-11-28T00:18:54;101248.66;;;5.15;80.94
76627;BME280;65519;53.230;10.390;2022-11-28T00:21:21;101257.59;;;5.16;80.96
76627;BME280;65519;53.230;10.390;2022-11-28T00:23:47;101244.69;;;5.18;80.93
76627;BME280;65519;53.230;10.390;2022-11-28T00:26:17;101240.94;;;5.19;81.05
76627;BME280;65519;53.230;10.390;2022-11-28T00:28:43;101252.91;;;5.29;80.16
76627;BME280;65519;53.230;10.390;2022-11-28T00:31:13;101249.03;;;5.19;80.73
76627;BME280;65519;53.230;10.390;2022-11-28T00:33:39;101248.88;;;5.13;80.72
76627;BME280;65519;53.230;10.390;2022-11-28T00:36:05;101243.78;;;5.24;79.92
76627;BME280;65519;53.230;10.390;2022-11-28T00:38:30;101238.38;;;5.24;80.01
76627;BME280;65519;53.230;10.390;2022-11-28T00:41:00;101229.63;;;5.28;80.09
76627;BME280;65519;53.230;10.390;2022-11-28T00:43:27;101228.84;;;5.21;79.90
76627;BME280;65519;53.230;10.390;2022-11-28T00:45:52;101238.81;;;5.21;79.99
76627;BME280;65519;53.230;10.390;2022-11-28T00:48:18;101239.31;;;5.11;80.48
76627;BME280;65519;53.230;10.390;2022-11-28T00:50:43;101237.84;;;5.15;80.16
76627;BME280;65519;53.230;10.390;2022-11-28T00:53:08;101248.53;;;5.03;80.36
76627;BME280;65519;53.230;10.390;2022-11-28T00:55:37;101245.94;;;5.15;80.46
76627;BME280;65519;53.230;10.390;2022-11-28T00:58:02;101236.56;;;5.18;80.67
76627;BME280;65519;53.230;10.390;2022-11-28T01:00:28;101225.56;;;5.19;80.37
76627;BME280;65519;53.230;10.390;2022-11-28T01:02:53;101220.47;;;5.29;79.39
76627;BME280;65519;53.230;10.390;2022-11-28T01:05:18;101210.03;;;5.33;79.16
76627;BME280;65519;53.230;10.390;2022-11-28T01:07:44;101199.06;;;5.28;79.12
76627;BME280;65519;53.230;10.390;2022-11-28T01:10:10;101209.09;;;5.21;79.05
76627;BME280;65519;53.230;10.390;2022-11-28T01:12:35;101213.44;;;5.22;79.60
76627;BME280;65519;53.230;10.390;2022-11-28T01:15:02;101208.94;;;5.16;79.38
76627;BME280;65519;53.230;10.390;2022-11-28T01:17:27;101184.19;;;5.19;79.25
76627;BME280;65519;53.230;10.390;2022-11-28T01:19:52;101185.53;;;5.28;79.10
76627;BME280;65519;53.230;10.390;2022-11-28T01:22:18;101197.34;;;5.08;79.23
76627;BME280;65519;53.230;10.390;2022-11-28T01:24:43;101186.88;;;5.19;79.00
76627;BME280;65519;53.230;10.390;2022-11-28T01:27:08;101181.47;;;5.19;79.40
76627;BME280;65519;53.230;10.390;2022-11-28T01:29:34;101154.19;;;5.20;78.37
76627;BME280;65519;53.230;10.390;2022-11-28T01:31:59;101178.06;;;5.30;78.79
76627;BME280;65519;53.230;10.390;2022-11-28T01:34:24;101168.50;;;5.27;78.97
76627;BME280;65519;53.230;10.390;2022-11-28T01:36:50;101181.91;;;5.16;79.31
76627;BME280;65519;53.230;10.390;2022-11-28T01:39:15;101181.81;;;5.04;79.63
76627;BME280;65519;53.230;10.390;2022-11-28T01:41:40;101164.91;;;5.08;79.62
76627;BME280;65519;53.230;10.390;2022-11-28T01:46:37;101156.81;;;5.08;79.28
76627;BME280;65519;53.230;10.390;2022-11-28T01:49:27;101163.72;;;5.04;79.76
76627;BME280;65519;53.230;10.390;2022-11-28T01:52:02;101144.94;;;5.09;79.99
76627;BME280;65519;53.230;10.390;2022-11-28T01:54:30;101140.69;;;5.20;78.94
76627;BME280;65519;53.230;10.390;2022-11-28T01:57:20;101149.59;;;5.02;80.21
76627;BME280;65519;53.230;10.390;2022-11-28T01:59:54;101123.19;;;5.04;79.95
76627;BME280;65519;53.230;10.390;2022-11-28T02:02:29;101122.91;;;5.12;79.72
76627;BME280;65519;53.230;10.390;2022-11-28T02:04:57;101104.97;;;5.18;78.96
76627;BME280;65519;53.230;10.390;2022-11-28T02:07:22;101088.06;;;5.04;79.37
76627;BME280;65519;53.230;10.390;2022-11-28T02:09:47;101095.81;;;5.19;78.87
76627;BME280;65519;53.230;10.390;2022-11-28T02:34:00;101073.22;;;5.13;78.05
76627;BME280;65519;53.230;10.390;2022-11-28T02:36:35;101063.22;;;5.14;77.42
76627;BME280;65519;53.230;10.390;2022-11-28T02:39:16;101046.19;;;5.13;77.95
76627;BME280;65519;53.230;10.390;2022-11-28T02:42:14;101038.16;;;5.07;77.51
76627;BME280;65519;53.230;10.390;2022-11-28T02:44:46;101034.75;;;5.11;77.43
76627;BME280;65519;53.230;10.390;2022-11-28T02:47:25;101036.88;;;5.09;77.31
76627;BME280;65519;53.230;10.390;2022-11-28T02:50:17;101050.16;;;5.11;77.28
76627;BME280;65519;53.230;10.390;2022-11-28T02:52:53;101071.16;;;5.09;77.53
76627;BME280;65519;53.230;10.390;2022-11-28T02:55:21;101042.44;;;5.14;77.34
76627;BME280;65519;53.230;10.390;2022-11-28T02:57:52;101054.28;;;5.13;77.09
76627;BME280;65519;53.230;10.390;2022-11-28T03:14:27;101032.50;;;5.08;77.55
76627;BME280;65519;53.230;10.390;2022-11-28T03:17:42;101017.88;;;4.98;77.52
76627;BME280;65519;53.230;10.390;2022-11-28T03:20:28;101010.53;;;5.05;77.39
76627;BME280;65519;53.230;10.390;2022-11-28T03:28:27;101013.00;;;5.06;77.06
76627;BME280;65519;53.230;10.390;2022-11-28T03:31:04;100997.03;;;5.05;77.41
76627;BME280;65519;53.230;10.390;2022-11-28T03:33:34;100981.13;;;4.97;77.44
76627;BME280;65519;53.230;10.390;2022-11-28T03:36:27;100986.44;;;5.03;76.80
76627;BME280;65519;53.230;10.390;2022-11-28T03:39:00;101005.19;;;4.98;77.25
76627;BME280;65519;53.230;10.390;2022-11-28T03:41:41;101000.38;;;5.00;76.99
76627;BME280;65519;53.230;10.390;2022-11-28T03:44:17;100989.88;;;4.92;77.17
76627;BME280;65519;53.230;10.390;2022-11-28T03:46:46;100986.28;;;4.98;76.90
76627;BME280;65519;53.230;10.390;2022-11-28T03:49:18;100998.38;;;4.96;77.07
76627;BME280;65519;53.230;10.390;2022-11-28T03:52:07;101002.22;;;5.06;76.57
76627;BME280;65519;53.230;10.390;2022-11-28T03:54:49;101025.59;;;4.94;76.88
76627;BME280;65519;53.230;10.390;2022-11-28T03:57:37;101027.47;;;4.94;77.28
76627;BME280;65519;53.230;10.390;2022-11-28T04:00:06;101027.94;;;4.91;77.36
76627;BME280;65519;53.230;10.390;2022-11-28T04:07:56;101006.84;;;4.99;76.72
76627;BME280;65519;53.230;10.390;2022-11-28T04:10:42;101008.78;;;4.92;77.51
76627;BME280;65519;53.230;10.390;2022-11-28T04:18:36;101014.38;;;4.97;77.44
76627;BME280;65519;53.230;10.390;2022-11-28T04:23:36;101007.28;;;4.78;78.23
76627;BME280;65519;53.230;10.390;2022-11-28T04:26:07;101019.28;;;4.82;77.83
76627;BME280;65519;53.230;10.390;2022-11-28T04:28:35;101003.53;;;4.79;78.05
76627;BME280;65519;53.230;10.390;2022-11-28T04:31:03;101001.81;;;4.85;77.78
76627;BME280;65519;53.230;10.390;2022-11-28T04:33:30;100997.59;;;4.89;77.22
76627;BME280;65519;53.230;10.390;2022-11-28T04:35:58;100992.41;;;4.87;77.98
76627;BME280;65519;53.230;10.390;2022-11-28T04:38:25;100989.88;;;4.92;78.05
76627;BME280;65519;53.230;10.390;2022-11-28T04:40:59;100982.59;;;4.93;77.65
76627;BME280;65519;53.230;10.390;2022-11-28T04:43:29;100969.75;;;4.88;78.04
76627;BME280;65519;53.230;10.390;2022-11-28T04:46:06;100978.69;;;4.89;77.95
76627;BME280;65519;53.230;10.390;2022-11-28T04:48:33;100955.69;;;4.86;78.08
76627;BME280;65519;53.230;10.390;2022-11-28T04:51:09;100958.38;;;4.86;77.83
76627;BME280;65519;53.230;10.390;2022-11-28T04:53:53;100960.25;;;4.86;78.27
76627;BME280;65519;53.230;10.390;2022-11-28T04:56:30;100957.81;;;4.77;78.33
76627;BME280;65519;53.230;10.390;2022-11-28T04:58:57;100956.44;;;4.75;78.18
76627;BME280;65519;53.230;10.390;2022-11-28T05:01:26;100959.25;;;4.80;78.78
76627;BME280;65519;53.230;10.390;2022-11-28T05:03:53;100954.56;;;4.75;78.38
76627;BME280;65519;53.230;10.390;2022-11-28T05:06:31;100974.50;;;4.74;78.30
76627;BME280;65519;53.230;10.390;2022-11-28T05:08:56;100992.59;;;4.74;78.45
76627;BME280;65519;53.230;10.390;2022-11-28T05:11:22;100994.88;;;4.70;78.63
76627;BME280;65519;53.230;10.390;2022-11-28T05:13:47;100983.88;;;4.72;78.59
76627;BME280;65519;53.230;10.390;2022-11-28T05:16:13;100991.44;;;4.63;78.53
76627;BME280;65519;53.230;10.390;2022-11-28T05:18:39;101006.53;;;4.46;79.34
76627;BME280;65519;53.230;10.390;2022-11-28T05:21:05;101027.50;;;4.44;79.48
76627;BME280;65519;53.230;10.390;2022-11-28T05:23:35;101042.84;;;4.50;79.46
76627;BME280;65519;53.230;10.390;2022-11-28T05:26:04;101046.81;;;4.48;79.59
76627;BME280;65519;53.230;10.390;2022-11-28T05:28:30;101044.94;;;4.48;79.41
76627;BME280;65519;53.230;10.390;2022-11-28T05:30:57;101039.97;;;4.45;79.83
76627;BME280;65519;53.230;10.390;2022-11-28T05:33:22;101028.34;;;4.45;79.60
76627;BME280;65519;53.230;10.390;2022-11-28T05:35:48;101042.25;;;4.48;79.53
76627;BME280;65519;53.230;10.390;2022-11-28T05:38:13;101043.94;;;4.67;80.07
76627;BME280;65519;53.230;10.390;2022-11-28T05:40:38;101046.59;;;4.74;79.43
76627;BME280;65519;53.230;10.390;2022-11-28T05:43:11;101044.22;;;4.84;78.76
76627;BME280;65519;53.230;10.390;2022-11-28T05:45:41;101046.13;;;4.77;78.61
76627;BME280;65519;53.230;10.390;2022-11-28T05:48:06;101022.88;;;4.76;78.29
76627;BME280;65519;53.230;10.390;2022-11-28T05:50:32;101035.63;;;4.87;78.00
76627;BME280;65519;53.230;10.390;2022-11-28T05:52:57;101032.06;;;4.93;77.97
76627;BME280;65519;53.230;10.390;2022-11-28T05:55:23;101001.28;;;4.94;78.13
76627;BME280;65519;53.230;10.390;2022-11-28T05:57:48;100999.19;;;4.96;77.48
76627;BME280;65519;53.230;10.390;2022-11-28T06:00:14;100996.84;;;5.00;76.47
76627;BME280;65519;53.230;10.390;2022-11-28T06:02:40;100997.31;;;4.97;76.89
76627;BME280;65519;53.230;10.390;2022-11-28T06:05:06;100999.78;;;4.80;77.19
76627;BME280;65519;53.230;10.390;2022-11-28T06:07:31;101000.16;;;4.84;76.96
76627;BME280;65519;53.230;10.390;2022-11-28T06:09:57;100989.38;;;4.84;76.96
76627;BME280;65519;53.230;10.390;2022-11-28T06:12:22;100992.41;;;4.87;76.98
76627;BME280;65519;53.230;10.390;2022-11-28T06:14:47;100997.47;;;4.84;77.06
76627;BME280;65519;53.230;10.390;2022-11-28T06:17:13;100990.03;;;4.79;76.83
76627;BME280;65519;53.230;10.390;2022-11-28T06:19:38;100995.72;;;4.89;76.51
76627;BME280;65519;53.230;10.390;2022-11-28T06:22:03;100994.84;;;4.95;76.61
76627;BME280;65519;53.230;10.390;2022-11-28T06:24:29;100992.19;;;4.89;76.37
76627;BME280;65519;53.230;10.390;2022-11-28T06:26:54;100991.38;;;4.88;76.62
76627;BME280;65519;53.230;10.390;2022-11-28T06:29:20;100984.78;;;4.84;76.69
76627;BME280;65519;53.230;10.390;2022-11-28T06:31:45;100978.47;;;4.90;76.18
76627;BME280;65519;53.230;10.390;2022-11-28T06:34:11;100984.78;;;4.84;76.43
76627;BME280;65519;53.230;10.390;2022-11-28T06:36:37;100992.88;;;4.84;76.43
76627;BME280;65519;53.230;10.390;2022-11-28T06:39:03;100994.38;;;4.80;76.67
76627;BME280;65519;53.230;10.390;2022-11-28T06:41:29;100987.75;;;4.76;76.81
76627;BME280;65519;53.230;10.390;2022-11-28T06:43:54;100986.63;;;4.65;77.03
76627;BME280;65519;53.230;10.390;2022-11-28T06:46:21;100980.78;;;4.68;76.97
76627;BME280;65519;53.230;10.390;2022-11-28T06:48:49;100984.16;;;4.64;77.41
76627;BME280;65519;53.230;10.390;2022-11-28T06:51:15;100988.66;;;4.70;77.32
76627;BME280;65519;53.230;10.390;2022-11-28T06:53:41;100982.81;;;4.73;77.05
76627;BME280;65519;53.230;10.390;2022-11-28T06:56:11;100989.31;;;4.65;77.41
76627;BME280;65519;53.230;10.390;2022-11-28T06:58:38;100996.31;;;4.73;76.91
76627;BME280;65519;53.230;10.390;2022-11-28T07:01:11;101005.91;;;4.69;77.11
76627;BME280;65519;53.230;10.390;2022-11-28T07:03:37;101003.59;;;4.72;76.96
76627;BME280;65519;53.230;10.390;2022-11-28T07:06:04;101003.53;;;4.79;76.91
76627;BME280;65519;53.230;10.390;2022-11-28T07:08:31;100998.75;;;4.56;77.13
76627;BME280;65519;53.230;10.390;2022-11-28T07:10:57;100998.53;;;4.58;77.45
76627;BME280;65519;53.230;10.390;2022-11-28T07:13:23;101001.41;;;4.63;77.13
76627;BME280;65519;53.230;10.390;2022-11-28T07:15:50;101011.16;;;4.64;77.15
76627;BME280;65519;53.230;10.390;2022-11-28T07:18:15;100997.19;;;4.67;77.27
76627;BME280;65519;53.230;10.390;2022-11-28T07:20:41;101002.59;;;4.67;76.79
76627;BME280;65519;53.230;10.390;2022-11-28T07:23:06;101011.81;;;4.59;77.10
76627;BME280;65519;53.230;10.390;2022-11-28T07:25:32;101009.50;;;4.63;77.37
76627;BME280;65519;53.230;10.390;2022-11-28T07:28:00;101006.31;;;4.72;76.93
76627;BME280;65519;53.230;10.390;2022-11-28T07:30:25;101009.88;;;4.66;77.31
76627;BME280;65519;53.230;10.390;2022-11-28T07:32:51;101000.94;;;4.66;77.15
76627;BME280;65519;53.230;10.390;2022-11-28T07:35:16;100995.84;;;4.76;77.21
76627;BME280;65519;53.230;10.390;2022-11-28T07:37:42;100999.56;;;4.82;77.45
76627;BME280;65519;53.230;10.390;2022-11-28T07:40:07;100999.34;;;4.83;76.79
76627;BME280;65519;53.230;10.390;2022-11-28T07:42:33;101003.22;;;4.69;77.15
76627;BME280;65519;53.230;10.390;2022-11-28T07:44:58;101008.19;;;4.72;77.60
76627;BME280;65519;53.230;10.390;2022-11-28T07:47:24;101005.78;;;4.82;76.50
76627;BME280;65519;53.230;10.390;2022-11-28T07:49:49;101014.72;;;4.83;76.23
76627;BME280;65519;53.230;10.390;2022-11-28T07:52:14;101004.34;;;4.80;76.62
76627;BME280;65519;53.230;10.390;2022-11-28T07:54:40;101002.34;;;4.75;76.84
76627;BME280;65519;53.230;10.390;2022-11-28T07:57:05;101001.44;;;4.81;76.52
76627;BME280;65519;53.230;10.390;2022-11-28T07:59:31;100989.88;;;4.74;76.49
76627;BME280;65519;53.230;10.390;2022-11-28T08:01:56;101001.88;;;4.78;76.44
76627;BME280;65519;53.230;10.390;2022-11-28T08:04:21;101001.44;;;4.81;76.48
76627;BME280;65519;53.230;10.390;2022-11-28T08:06:47;101001.44;;;4.81;76.18
76627;BME280;65519;53.230;10.390;2022-11-28T08:09:12;101003.09;;;4.82;76.44
76627;BME280;65519;53.230;10.390;2022-11-28T08:11:38;101010.75;;;4.85;76.46
76627;BME280;65519;53.230;10.390;2022-11-28T08:14:04;101002.25;;;4.82;75.90
76627;BME280;65519;53.230;10.390;2022-11-28T08:16:30;101004.06;;;4.88;76.31
76627;BME280;65519;53.230;10.390;2022-11-28T08:18:59;101020.44;;;4.93;76.04
76627;BME280;65519;53.230;10.390;2022-11-28T08:21:30;101007.13;;;4.91;76.13
76627;BME280;65519;53.230;10.390;2022-11-28T08:23:58;101006.47;;;4.96;75.96
76627;BME280;65519;53.230;10.390;2022-11-28T08:26:25;101018.25;;;5.01;77.22
76627;BME280;65519;53.230;10.390;2022-11-28T08:28:51;101014.38;;;4.97;75.85
76627;BME280;65519;53.230;10.390;2022-11-28T08:31:26;101006.22;;;4.79;76.42
76627;BME280;65519;53.230;10.390;2022-11-28T08:33:54;101018.34;;;4.95;76.11
76627;BME280;65519;53.230;10.390;2022-11-28T08:36:20;101010.75;;;4.85;76.40
76627;BME280;65519;53.230;10.390;2022-11-28T08:38:46;101013.38;;;4.92;75.96
76627;BME280;65519;53.230;10.390;2022-11-28T08:41:18;101020.00;;;4.96;76.28
76627;BME280;65519;53.230;10.390;2022-11-28T08:43:44;101019.53;;;4.99;75.83
76627;BME280;65519;53.230;10.390;2022-11-28T08:46:12;101020.66;;;4.91;76.18
76627;BME280;65519;53.230;10.390;2022-11-28T08:48:38;101030.84;;;4.89;76.09
76627;BME280;65519;53.230;10.390;2022-11-28T08:51:04;101032.13;;;4.87;76.01
76627;BME280;65519;53.230;10.390;2022-11-28T08:53:30;101030.56;;;4.97;75.89
76627;BME280;65519;53.230;10.390;2022-11-28T08:55:56;101044.75;;;4.93;75.64
76627;BME280;65519;53.230;10.390;2022-11-28T08:58:21;101043.00;;;4.98;75.20
76627;BME280;65519;53.230;10.390;2022-11-28T09:00:47;101038.69;;;4.97;75.32
76627;BME280;65519;53.230;10.390;2022-11-28T09:03:14;101028.31;;;4.94;75.51
76627;BME280;65519;53.230;10.390;2022-11-28T09:05:41;101040.09;;;5.00;75.36
76627;BME280;65519;53.230;10.390;2022-11-28T09:08:09;101029.59;;;5.10;74.47
76627;BME280;65519;53.230;10.390;2022-11-28T09:10:36;101033.84;;;4.99;75.27
76627;BME280;65519;53.230;10.390;2022-11-28T09:13:02;101027.47;;;5.12;75.17
76627;BME280;65519;53.230;10.390;2022-11-28T09:15:28;101038.50;;;5.10;74.73
76627;BME280;65519;53.230;10.390;2022-11-28T09:17:53;101040.25;;;5.05;75.19
76627;BME280;65519;53.230;10.390;2022-11-28T09:20:18;101039.56;;;5.09;74.49
76627;BME280;65519;53.230;10.390;2022-11-28T09:22:45;101032.28;;;5.10;74.97
76627;BME280;65519;53.230;10.390;2022-11-28T09:25:12;101030.19;;;5.12;74.52
76627;BME280;65519;53.230;10.390;2022-11-28T09:27:38;101033.88;;;5.18;74.42
76627;BME280;65519;53.230;10.390;2022-11-28T09:30:05;101031.69;;;5.26;73.61
76627;BME280;65519;53.230;10.390;2022-11-28T09:32:30;101032.44;;;5.33;73.86
76627;BME280;65519;53.230;10.390;2022-11-28T09:34:56;101031.19;;;5.18;74.52
76627;BME280;65519;53.230;10.390;2022-11-28T09:37:22;101026.28;;;5.26;74.23
76627;BME280;65519;53.230;10.390;2022-11-28T09:39:47;101027.25;;;5.32;74.10
76627;BME280;65519;53.230;10.390;2022-11-28T09:42:30;101021.50;;;5.28;74.44
76627;BME280;65519;53.230;10.390;2022-11-28T09:45:02;101023.72;;;5.31;74.01
76627;BME280;65519;53.230;10.390;2022-11-28T09:47:31;101029.97;;;5.32;74.40
76627;BME280;65519;53.230;10.390;2022-11-28T09:50:20;101031.59;;;5.33;73.90
76627;BME280;65519;53.230;10.390;2022-11-28T09:58:26;101023.91;;;5.18;74.47
76627;BME280;65519;53.230;10.390;2022-11-28T10:01:00;101038.69;;;5.16;74.82
76627;BME280;65519;53.230;10.390;2022-11-28T10:03:41;101020.72;;;5.21;74.45
76627;BME280;65519;53.230;10.390;2022-11-28T10:19:40;101032.38;;;5.22;74.57
76627;BME280;65519;53.230;10.390;2022-11-28T10:22:18;101026.44;;;5.13;74.61
76627;BME280;65519;53.230;10.390;2022-11-28T10:24:55;101030.97;;;5.19;74.63
76627;BME280;65519;53.230;10.390;2022-11-28T10:27:24;101023.06;;;5.18;74.55
76627;BME280;65519;53.230;10.390;2022-11-28T10:30:04;101027.56;;;5.24;74.62
76627;BME280;65519;53.230;10.390;2022-11-28T10:32:37;101025.16;;;5.16;74.78
76627;BME280;65519;53.230;10.390;2022-11-28T10:35:43;101028.25;;;5.19;74.40
76627;BME280;65519;53.230;10.390;2022-11-28T10:38:11;101024.19;;;5.28;73.94
76627;BME280;65519;53.230;10.390;2022-11-28T10:49:17;101014.84;;;5.42;73.62
76627;BME280;65519;53.230;10.390;2022-11-28T10:52:20;101011.63;;;5.34;73.71
76627;BME280;65519;53.230;10.390;2022-11-28T10:57:54;101015.47;;;5.26;73.96
76627;BME280;65519;53.230;10.390;2022-11-28T11:00:25;101009.53;;;5.36;73.87
76627;BME280;65519;53.230;10.390;2022-11-28T11:02:51;101014.28;;;5.40;74.20
76627;BME280;65519;53.230;10.390;2022-11-28T11:05:35;101006.94;;;5.29;74.20
76627;BME280;65519;53.230;10.390;2022-11-28T11:10:48;101016.91;;;5.10;75.78
76627;BME280;65519;53.230;10.390;2022-11-28T11:13:20;101010.97;;;5.20;75.88
76627;BME280;65519;53.230;10.390;2022-11-28T11:18:29;101014.88;;;5.24;76.61
76627;BME280;65519;53.230;10.390;2022-11-28T11:21:16;101009.63;;;5.29;77.10
76627;BME280;65519;53.230;10.390;2022-11-28T11:23:43;101008.81;;;5.29;77.68
76627;BME280;65519;53.230;10.390;2022-11-28T11:28:46;101002.34;;;5.30;77.46
76627;BME280;65519;53.230;10.390;2022-11-28T11:31:21;101008.09;;;5.33;77.65
76627;BME280;65519;53.230;10.390;2022-11-28T11:33:47;101010.06;;;5.26;77.76
76627;BME280;65519;53.230;10.390;2022-11-28T11:36:28;100996.19;;;5.23;78.50
76627;BME280;65519;53.230;10.390;2022-11-28T11:41:36;101000.16;;;5.20;78.89
76627;BME280;65519;53.230;10.390;2022-11-28T11:44:31;100997.69;;;5.19;78.66
76627;BME280;65519;53.230;10.390;2022-11-28T11:47:09;101001.28;;;5.12;79.80
76627;BME280;65519;53.230;10.390;2022-11-28T11:49:46;101000.69;;;5.10;79.73
76627;BME280;65519;53.230;10.390;2022-11-28T11:52:24;101001.16;;;5.07;80.17
76627;BME280;65519;53.230;10.390;2022-11-28T11:57:30;100996.59;;;5.08;79.47
76627;BME280;65519;53.230;10.390;2022-11-28T12:00:06;100989.13;;;5.03;80.28
76627;BME280;65519;53.230;10.390;2022-11-28T12:02:54;100977.50;;;5.03;79.59
76627;BME280;65519;53.230;10.390;2022-11-28T12:05:27;100981.16;;;5.08;81.44
76627;BME280;65519;53.230;10.390;2022-11-28T12:10:27;101007.38;;;5.08;79.85
76627;BME280;65519;53.230;10.390;2022-11-28T12:12:54;101002.03;;;5.01;79.79
76627;BME280;65519;53.230;10.390;2022-11-28T12:33:46;101001.28;;;5.12;78.67
76627;BME280;65519;53.230;10.390;2022-11-28T12:39:15;100992.88;;;5.02;78.68
76627;BME280;65519;53.230;10.390;2022-11-28T12:47:09;100982.97;;;5.14;77.85
76627;BME280;65519;53.230;10.390;2022-11-28T12:52:34;100987.66;;;5.07;78.49
76627;BME280;65519;53.230;10.390;2022-11-28T13:00:20;100990.41;;;5.01;78.00
76627;BME280;65519;53.230;10.390;2022-11-28T13:03:15;100986.56;;;5.08;78.58
76627;BME280;65519;53.230;10.390;2022-11-28T13:11:31;100992.50;;;4.99;78.70
76627;BME280;65519;53.230;10.390;2022-11-28T13:16:57;100986.44;;;5.03;78.78
76627;BME280;65519;53.230;10.390;2022-11-28T13:19:36;100981.19;;;4.90;79.38
76627;BME280;65519;53.230;10.390;2022-11-28T13:22:24;100985.63;;;4.85;79.37
76627;BME280;65519;53.230;10.390;2022-11-28T13:25:18;100978.03;;;4.93;79.03
76627;BME280;65519;53.230;10.390;2022-11-28T13:30:36;100983.44;;;4.93;78.87
76627;BME280;65519;53.230;10.390;2022-11-28T13:33:28;100993.63;;;4.91;78.03
76627;BME280;65519;53.230;10.390;2022-11-28T13:35:58;100988.41;;;4.96;78.10
76627;BME280;65519;53.230;10.390;2022-11-28T13:38:44;100999.03;;;4.91;78.48
76627;BME280;65519;53.230;10.390;2022-11-28T13:41:19;100995.91;;;4.94;78.28
76627;BME280;65519;53.230;10.390;2022-11-28T13:46:23;100974.34;;;4.88;77.52
76627;BME280;65519;53.230;10.390;2022-11-28T13:48:50;100991.53;;;4.93;77.42
76627;BME280;65519;53.230;10.390;2022-11-28T13:51:24;100989.13;;;4.85;77.86
76627;BME280;65519;53.230;10.390;2022-11-28T13:56:43;100992.75;;;4.97;76.96
76627;BME280;65519;53.230;10.390;2022-11-28T13:59:18;101001.53;;;4.93;77.83
76627;BME280;65519;53.230;10.390;2022-11-28T14:01:46;100995.28;;;4.92;77.40
76627;BME280;65519;53.230;10.390;2022-11-28T14:04:15;101000.38;;;4.82;78.32
76627;BME280;65519;53.230;10.390;2022-11-28T14:06:44;101002.78;;;4.90;77.25
76627;BME280;65519;53.230;10.390;2022-11-28T14:22:43;101003.22;;;4.87;77.09
76627;BME280;65519;53.230;10.390;2022-11-28T14:25:21;101009.09;;;4.84;77.74
76627;BME280;65519;53.230;10.390;2022-11-28T14:27:53;101004.66;;;4.90;77.32
76627;BME280;65519;53.230;10.390;2022-11-28T14:30:25;100997.81;;;4.87;77.67
76627;BME280;65519;53.230;10.390;2022-11-28T14:32:55;100995.13;;;4.87;77.37
76627;BME280;65519;53.230;10.390;2022-11-28T14:41:04;101000.38;;;4.82;77.37
76627;BME280;65519;53.230;10.390;2022-11-28T14:43:36;100997.81;;;4.87;77.41
76627;BME280;65519;53.230;10.390;2022-11-28T14:48:41;101004.22;;;4.93;77.20
76627;BME280;65519;53.230;10.390;2022-11-28T14:54:28;100989.38;;;4.84;76.90
76627;BME280;65519;53.230;10.390;2022-11-28T14:56:54;100991.63;;;4.87;77.11
76627;BME280;65519;53.230;10.390;2022-11-28T14:59:31;100985.13;;;4.88;77.12
76627;BME280;65519;53.230;10.390;2022-11-28T15:13:40;101018.16;;;4.71;77.55
76627;BME280;65519;53.230;10.390;2022-11-28T15:16:12;101007.50;;;4.76;77.21
76627;BME280;65519;53.230;10.390;2022-11-28T15:18:48;101023.69;;;4.76;78.59
76627;BME280;65519;53.230;10.390;2022-11-28T15:21:16;101011.19;;;4.82;77.05
76627;BME280;65519;53.230;10.390;2022-11-28T15:23:42;101021.38;;;4.80;77.26
76627;BME280;65519;53.230;10.390;2022-11-28T15:26:27;101022.59;;;4.84;77.48
76627;BME280;65519;53.230;10.390;2022-11-28T15:29:13;101012.53;;;4.91;77.17
76627;BME280;65519;53.230;10.390;2022-11-28T15:31:46;101025.09;;;4.86;77.32
76627;BME280;65519;53.230;10.390;2022-11-28T15:34:27;101019.22;;;4.89;77.53
76627;BME280;65519;53.230;10.390;2022-11-28T15:36:55;101019.59;;;4.92;76.64
76627;BME280;65519;53.230;10.390;2022-11-28T15:39:32;101018.16;;;4.90;77.09
76627;BME280;65519;53.230;10.390;2022-11-28T15:42:06;101018.38;;;4.88;77.38
76627;BME280;65519;53.230;10.390;2022-11-28T15:44:34;101022.13;;;4.87;77.53
76627;BME280;65519;53.230;10.390;2022-11-28T15:47:00;101026.25;;;4.90;77.59
76627;BME280;65519;53.230;10.390;2022-11-28T15:49:32;101030.41;;;4.92;76.61
76627;BME280;65519;53.230;10.390;2022-11-28T15:52:00;101031.66;;;4.90;77.44
76627;BME280;65519;53.230;10.390;2022-11-28T15:57:00;101038.59;;;4.86;77.41
76627;BME280;65519;53.230;10.390;2022-11-28T15:59:27;101046.72;;;4.79;77.67
76627;BME280;65519;53.230;10.390;2022-11-28T16:01:56;101046.63;;;4.67;78.22
76627;BME280;65519;53.230;10.390;2022-11-28T16:04:24;101035.63;;;4.69;77.76
76627;BME280;65519;53.230;10.390;2022-11-28T16:06:51;101033.22;;;4.79;77.62
76627;BME280;65519;53.230;10.390;2022-11-28T16:09:53;101036.84;;;4.73;78.15
76627;BME280;65519;53.230;10.390;2022-11-28T16:12:19;101044.94;;;4.73;78.02
76627;BME280;65519;53.230;10.390;2022-11-28T16:14:45;101037.81;;;4.78;77.46
76627;BME280;65519;53.230;10.390;2022-11-28T16:17:18;101038.41;;;4.81;77.51
76627;BME280;65519;53.230;10.390;2022-11-28T16:19:44;101034.28;;;4.78;77.75
76627;BME280;65519;53.230;10.390;2022-11-28T16:22:16;101025.50;;;4.64;77.78